createdAt,value
2022-08-20T00:01:09.914Z,15.17
2022-08-20T00:06:01.644Z,14.90
2022-08-20T00:10:29.709Z,14.27
2022-08-20T00:14:55.043Z,15.17
2022-08-20T00:19:20.268Z,13.33
2022-08-20T00:23:49.172Z,12.27
2022-08-20T00:28:14.906Z,11.33
2022-08-20T00:32:52.199Z,11.20
2022-08-20T00:37:17.471Z,10.57
2022-08-20T00:41:42.883Z,11.10
2022-08-20T00:46:15.298Z,9.57
2022-08-20T00:50:40.573Z,11.57
2022-08-20T00:55:07.326Z,9.70
2022-08-20T00:59:37.210Z,10.27
2022-08-20T01:04:02.541Z,10.20
2022-08-20T01:08:28.235Z,10.80
2022-08-20T01:12:59.350Z,10.30
2022-08-20T01:17:28.022Z,9.43
2022-08-20T01:21:53.884Z,9.60
2022-08-20T01:26:25.822Z,9.43
2022-08-20T01:30:51.438Z,10.17
2022-08-20T01:35:22.387Z,8.37
2022-08-20T01:39:47.893Z,7.70
2022-08-20T01:44:17.000Z,9.03
2022-08-20T01:48:44.556Z,8.47
2022-08-20T01:53:25.619Z,7.60
2022-08-20T01:57:51.150Z,7.83
2022-08-20T02:02:16.451Z,8.50
2022-08-20T02:06:57.351Z,7.97
2022-08-20T02:11:24.117Z,8.47
2022-08-20T02:15:49.499Z,8.03
2022-08-20T02:20:20.069Z,8.27
2022-08-20T02:24:45.329Z,9.20
2022-08-20T02:29:13.507Z,9.87
2022-08-20T02:33:39.153Z,8.40
2022-08-20T02:38:04.915Z,9.20
2022-08-20T02:42:30.168Z,8.07
2022-08-20T02:46:55.626Z,7.90
2022-08-20T02:51:30.475Z,9.20
2022-08-20T02:55:57.225Z,9.00
2022-08-20T03:00:23.323Z,10.57
2022-08-20T03:04:48.571Z,7.53
2022-08-20T03:09:14.029Z,9.30
2022-08-20T03:13:39.433Z,9.80
2022-08-20T03:18:04.817Z,9.63
2022-08-20T03:22:30.059Z,9.03
2022-08-20T03:26:55.398Z,9.60
2022-08-20T03:31:20.889Z,10.10
2022-08-20T03:35:47.433Z,9.57
2022-08-20T03:40:17.285Z,11.13
2022-08-20T03:44:42.800Z,11.73
2022-08-20T03:49:08.048Z,11.60
2022-08-20T03:53:33.299Z,10.00
2022-08-20T03:58:03.518Z,10.30
2022-08-20T04:02:28.813Z,9.10
2022-08-20T04:06:54.306Z,8.50
2022-08-20T04:11:19.577Z,9.17
2022-08-20T04:15:45.791Z,9.97
2022-08-20T04:20:15.349Z,9.43
2022-08-20T04:24:42.807Z,8.47
2022-08-20T04:29:08.770Z,8.00
2022-08-20T04:33:35.489Z,9.60
2022-08-20T04:38:06.776Z,9.70
2022-08-20T04:42:32.108Z,11.03
2022-08-20T04:46:57.949Z,11.60
2022-08-20T04:51:24.349Z,10.60
2022-08-20T04:55:51.790Z,11.30
2022-08-20T05:00:17.724Z,10.40
2022-08-20T05:04:42.946Z,10.83
2022-08-20T05:09:08.379Z,10.30
2022-08-20T05:13:33.665Z,9.73
2022-08-20T05:18:02.403Z,10.10
2022-08-20T05:22:29.500Z,8.03
2022-08-20T05:26:56.920Z,9.00
2022-08-20T05:31:22.155Z,9.70
2022-08-20T05:35:52.805Z,10.00
2022-08-20T05:40:18.201Z,10.87
2022-08-20T05:44:46.352Z,10.73
2022-08-20T05:49:22.162Z,11.63
2022-08-20T05:53:47.392Z,12.20
2022-08-20T05:58:32.951Z,11.77
2022-08-20T06:03:16.778Z,12.47
2022-08-20T06:07:42.110Z,13.57
2022-08-20T06:12:09.291Z,13.57
2022-08-20T06:16:34.594Z,13.70
2022-08-20T06:21:02.722Z,14.10
2022-08-20T06:25:29.526Z,15.70
2022-08-20T06:29:55.250Z,13.97
2022-08-20T06:34:20.594Z,14.20
2022-08-20T06:38:46.335Z,15.73
2022-08-20T06:43:11.999Z,15.40
2022-08-20T06:47:41.796Z,14.90
2022-08-20T06:52:07.056Z,15.90
2022-08-20T06:56:33.551Z,15.80
2022-08-20T07:01:04.486Z,16.20
2022-08-20T07:05:43.215Z,15.40
2022-08-20T07:10:12.128Z,15.60
2022-08-20T07:14:37.429Z,16.67
2022-08-20T07:19:03.818Z,14.30
2022-08-20T07:23:30.168Z,16.37
2022-08-20T07:28:02.414Z,14.13
2022-08-20T07:32:53.671Z,12.33
2022-08-20T07:37:20.812Z,12.07
2022-08-20T07:42:02.816Z,12.23
2022-08-20T07:46:31.253Z,9.13
2022-08-20T07:50:59.351Z,7.73
2022-08-20T07:55:24.955Z,6.90
2022-08-20T07:59:50.276Z,6.10
2022-08-20T08:04:16.034Z,4.83
2022-08-20T08:08:41.978Z,3.80
2022-08-20T08:13:12.108Z,3.90
2022-08-20T08:17:38.036Z,3.77
2022-08-20T08:22:04.947Z,3.93
2022-08-20T08:26:30.360Z,3.40
2022-08-20T08:30:55.883Z,2.93
2022-08-20T08:35:22.357Z,2.83
2022-08-20T08:39:47.898Z,2.73
2022-08-20T08:44:27.059Z,2.30
2022-08-20T08:48:57.578Z,2.60
2022-08-20T08:53:29.715Z,2.00
2022-08-20T08:57:59.905Z,2.27
2022-08-20T09:02:32.418Z,2.10
2022-08-20T09:06:58.760Z,1.70
2022-08-20T09:11:25.242Z,1.93
2022-08-20T09:15:50.457Z,1.83
2022-08-20T09:20:15.811Z,2.03
2022-08-20T09:24:44.060Z,1.90
2022-08-20T09:29:09.893Z,1.80
2022-08-20T09:33:35.230Z,2.17
2022-08-20T09:38:01.346Z,1.77
2022-08-20T09:42:31.291Z,1.70
2022-08-20T09:46:56.522Z,2.00
2022-08-20T09:51:22.501Z,1.87
2022-08-20T09:55:52.776Z,1.87
2022-08-20T10:00:19.201Z,2.00
2022-08-20T10:04:44.601Z,1.50
2022-08-20T10:09:09.828Z,1.50
2022-08-20T10:13:35.085Z,1.73
2022-08-20T10:18:07.433Z,1.47
2022-08-20T10:22:32.806Z,1.30
2022-08-20T10:27:00.486Z,1.43
2022-08-20T10:31:25.743Z,1.90
2022-08-20T10:35:50.983Z,1.43
2022-08-20T10:40:20.114Z,1.93
2022-08-20T10:44:45.597Z,1.60
2022-08-20T10:49:11.015Z,1.40
2022-08-20T10:53:36.743Z,1.40
2022-08-20T10:58:05.700Z,1.70
2022-08-20T11:02:31.589Z,1.73
2022-08-20T11:06:57.082Z,1.60
2022-08-20T11:11:22.315Z,1.70
2022-08-20T11:15:47.558Z,1.20
2022-08-20T11:20:18.015Z,1.80
2022-08-20T11:24:43.625Z,1.50
2022-08-20T11:29:12.387Z,1.67
2022-08-20T11:33:37.586Z,1.60
2022-08-20T11:38:03.416Z,1.53
2022-08-20T11:42:28.716Z,1.40
2022-08-20T11:46:54.053Z,1.60
2022-08-20T11:51:19.302Z,1.70
2022-08-20T11:55:45.263Z,1.70
2022-08-20T12:00:17.131Z,1.70
2022-08-20T12:04:42.397Z,1.87
2022-08-20T12:09:07.735Z,2.10
2022-08-20T12:13:47.979Z,1.73
2022-08-20T12:18:14.286Z,2.00
2022-08-20T12:22:40.284Z,1.57
2022-08-20T12:27:17.880Z,1.97
2022-08-20T12:31:43.115Z,1.93
2022-08-20T12:36:08.857Z,1.83
2022-08-20T12:40:35.487Z,1.87
2022-08-20T12:45:01.675Z,1.67
2022-08-20T12:49:28.042Z,1.60
2022-08-20T12:53:53.378Z,1.77
2022-08-20T12:58:19.290Z,1.90
2022-08-20T13:02:44.816Z,1.63
2022-08-20T13:07:12.981Z,1.60
2022-08-20T13:11:38.397Z,1.60
2022-08-20T13:16:03.959Z,1.80
2022-08-20T13:20:34.526Z,1.60
2022-08-20T13:25:00.140Z,1.50
2022-08-20T13:29:25.381Z,1.70
2022-08-20T13:33:50.692Z,1.47
2022-08-20T13:38:15.930Z,1.80
2022-08-20T13:42:41.283Z,1.73
2022-08-20T13:47:26.286Z,1.57
2022-08-20T13:51:52.080Z,1.50
2022-08-20T13:56:17.775Z,1.30
2022-08-20T14:00:43.003Z,1.20
2022-08-20T14:05:09.566Z,1.50
2022-08-20T14:09:39.811Z,1.30
2022-08-20T14:14:05.018Z,1.50
2022-08-20T14:18:30.835Z,1.20
2022-08-20T14:22:57.091Z,1.30
2022-08-20T14:27:27.630Z,1.43
2022-08-20T14:31:55.844Z,1.50
2022-08-20T14:36:21.049Z,1.55
2022-08-20T14:40:47.303Z,1.50
2022-08-20T14:45:14.260Z,1.47
2022-08-20T14:49:41.396Z,1.40
2022-08-20T14:54:06.668Z,1.77
2022-08-20T14:58:31.890Z,1.37
2022-08-20T15:02:57.860Z,1.47
2022-08-20T15:07:27.767Z,1.40
2022-08-20T15:11:53.033Z,1.47
2022-08-20T15:16:18.267Z,1.50
2022-08-20T15:20:43.471Z,1.60
2022-08-20T15:25:15.109Z,1.30
2022-08-20T15:29:41.549Z,1.50
2022-08-20T15:34:06.745Z,1.30
2022-08-20T15:38:42.853Z,1.50
2022-08-20T15:43:08.110Z,1.33
2022-08-20T15:48:07.963Z,1.37
2022-08-20T15:52:42.227Z,1.40
2022-08-20T15:57:15.302Z,1.70
2022-08-20T16:01:59.002Z,1.60
2022-08-20T16:06:28.032Z,1.50
2022-08-20T16:11:14.692Z,1.30
2022-08-20T16:15:47.456Z,1.23
2022-08-20T16:20:35.263Z,1.57
2022-08-20T16:25:02.132Z,1.20
2022-08-20T16:29:45.510Z,1.43
2022-08-20T16:34:34.445Z,1.40
2022-08-20T16:39:07.784Z,1.20
2022-08-20T16:43:40.859Z,1.53
2022-08-20T16:48:08.401Z,2.10
2022-08-20T16:52:33.852Z,1.40
2022-08-20T16:57:06.157Z,1.90
2022-08-20T17:01:31.797Z,1.67
2022-08-20T17:06:00.340Z,1.73
2022-08-20T17:10:33.601Z,1.90
2022-08-20T17:14:59.108Z,1.50
2022-08-20T17:19:32.422Z,1.40
2022-08-20T17:24:02.410Z,1.57
2022-08-20T17:28:33.181Z,1.53
2022-08-20T17:33:05.587Z,1.40
2022-08-20T17:37:35.659Z,1.47
2022-08-20T17:42:13.978Z,1.30
2022-08-20T17:46:47.543Z,1.57
2022-08-20T17:51:29.600Z,1.97
2022-08-20T17:56:08.639Z,1.67
2022-08-20T18:00:34.014Z,1.87
2022-08-20T18:04:59.418Z,1.60
2022-08-20T18:09:58.594Z,1.87
2022-08-20T18:14:41.199Z,1.67
2022-08-20T18:19:29.789Z,1.60
2022-08-20T18:24:10.547Z,1.90
2022-08-20T18:28:49.141Z,1.40
2022-08-20T18:33:26.437Z,1.63
2022-08-20T18:37:52.599Z,1.73
2022-08-20T18:42:35.354Z,2.03
2022-08-20T18:47:03.173Z,1.40
2022-08-20T18:51:49.523Z,1.50
2022-08-20T18:56:15.664Z,1.73
2022-08-20T19:00:49.407Z,1.73
2022-08-20T19:05:26.852Z,1.20
2022-08-20T19:10:29.212Z,1.30
2022-08-20T19:15:08.034Z,1.80
2022-08-20T19:19:33.394Z,1.83
2022-08-20T19:24:04.418Z,1.70
2022-08-20T19:29:08.946Z,1.60
2022-08-20T19:33:43.797Z,1.57
2022-08-20T19:38:16.435Z,2.00
2022-08-20T19:42:43.718Z,1.87
2022-08-20T19:47:53.190Z,1.90
2022-08-20T19:53:06.411Z,1.73
2022-08-20T19:57:31.950Z,1.73
2022-08-20T20:02:04.054Z,1.60
2022-08-20T20:06:48.519Z,1.80
2022-08-20T20:11:21.810Z,1.20
2022-08-20T20:15:50.635Z,1.90
2022-08-20T20:20:29.119Z,1.70
2022-08-20T20:25:40.455Z,1.77
2022-08-20T20:30:13.080Z,1.47
2022-08-20T20:34:54.860Z,1.53
2022-08-20T20:39:43.821Z,1.60
2022-08-20T20:44:23.857Z,1.60
2022-08-20T20:49:00.200Z,1.73
2022-08-20T20:53:32.322Z,1.50
2022-08-20T20:58:13.418Z,1.70
2022-08-20T21:02:47.900Z,1.50
2022-08-20T21:07:18.456Z,1.70
2022-08-20T21:11:43.742Z,1.40
2022-08-20T21:16:09.205Z,1.83
2022-08-20T21:20:35.360Z,1.50
2022-08-20T21:25:00.733Z,2.03
2022-08-20T21:29:32.788Z,1.60
2022-08-20T21:33:58.328Z,1.90
2022-08-20T21:38:24.049Z,2.10
2022-08-20T21:42:49.413Z,1.80
2022-08-20T21:47:14.613Z,1.70
2022-08-20T21:51:39.874Z,1.60
2022-08-20T21:56:05.718Z,2.23
2022-08-20T22:00:58.576Z,1.70
2022-08-20T22:05:23.831Z,2.07
2022-08-20T22:09:49.027Z,1.80
2022-08-20T22:14:16.835Z,1.70
2022-08-20T22:18:42.147Z,1.90
2022-08-20T22:23:07.622Z,1.60
2022-08-20T22:27:32.866Z,2.40
2022-08-20T22:31:59.039Z,1.83
2022-08-20T22:36:25.766Z,2.07
2022-08-20T22:40:51.875Z,1.90
2022-08-20T22:45:17.780Z,2.13
2022-08-20T22:49:44.290Z,2.00
2022-08-20T22:54:16.435Z,1.60
2022-08-20T22:58:42.421Z,1.70
2022-08-20T23:03:12.609Z,1.90
2022-08-20T23:07:38.175Z,1.63
2022-08-20T23:12:04.127Z,1.87
2022-08-20T23:16:30.025Z,2.17
2022-08-20T23:20:57.448Z,1.60
2022-08-20T23:25:22.790Z,1.97
2022-08-20T23:29:48.331Z,1.73
2022-08-20T23:34:13.563Z,2.50
2022-08-20T23:38:39.255Z,2.00
2022-08-20T23:43:05.506Z,1.40
2022-08-20T23:47:30.756Z,2.10
2022-08-20T23:51:57.720Z,2.00
2022-08-20T23:56:23.387Z,1.80
